createdAt,value
2022-11-18T00:01:21.793Z,2.47
2022-11-18T00:03:49.346Z,2.25
2022-11-18T00:06:18.660Z,2.20
2022-11-18T00:08:45.940Z,2.00
2022-11-18T00:11:37.796Z,2.13
2022-11-18T00:14:22.745Z,2.58
2022-11-18T00:16:55.435Z,1.92
2022-11-18T00:19:25.851Z,1.92
2022-11-18T00:21:55.660Z,1.95
2022-11-18T00:24:22.783Z,1.73
2022-11-18T00:26:49.903Z,2.10
2022-11-18T00:29:17.197Z,2.08
2022-11-18T00:31:44.322Z,2.00
2022-11-18T00:34:13.662Z,2.22
2022-11-18T00:36:44.152Z,2.03
2022-11-18T00:39:12.441Z,2.00
2022-11-18T00:42:00.098Z,1.80
2022-11-18T00:44:29.200Z,2.45
2022-11-18T00:46:58.624Z,1.60
2022-11-18T00:49:25.453Z,2.25
2022-11-18T00:51:52.241Z,1.63
2022-11-18T00:54:19.392Z,2.08
2022-11-18T00:56:46.127Z,1.58
2022-11-18T00:59:12.859Z,1.92
2022-11-18T01:01:39.636Z,2.10
2022-11-18T01:04:06.648Z,1.70
2022-11-18T01:06:33.318Z,1.95
2022-11-18T01:09:00.096Z,1.80
2022-11-18T01:11:45.408Z,2.08
2022-11-18T01:14:12.090Z,1.85
2022-11-18T01:16:38.733Z,1.92
2022-11-18T01:19:05.460Z,2.15
2022-11-18T01:21:32.162Z,1.90
2022-11-18T01:23:58.847Z,2.03
2022-11-18T01:26:25.705Z,1.92
2022-11-18T01:28:57.473Z,2.40
2022-11-18T01:31:24.600Z,1.67
2022-11-18T01:33:54.009Z,1.92
2022-11-18T01:36:23.640Z,2.13
2022-11-18T01:38:51.155Z,1.90
2022-11-18T01:41:22.100Z,2.00
2022-11-18T01:43:57.869Z,1.88
2022-11-18T01:46:29.393Z,2.13
2022-11-18T01:49:05.202Z,1.58
2022-11-18T01:51:46.216Z,1.50
2022-11-18T01:54:22.575Z,2.50
2022-11-18T01:56:54.683Z,1.95
2022-11-18T01:59:31.810Z,2.00
2022-11-18T02:02:05.273Z,1.42
2022-11-18T02:04:32.923Z,1.60
2022-11-18T02:07:01.825Z,1.98
2022-11-18T02:09:28.560Z,2.13
2022-11-18T02:11:55.307Z,1.95
2022-11-18T02:14:29.236Z,1.58
2022-11-18T02:17:07.860Z,1.85
2022-11-18T02:19:46.904Z,1.52
2022-11-18T02:22:44.713Z,1.83
2022-11-18T02:25:20.400Z,1.65
2022-11-18T02:28:29.378Z,1.85
2022-11-18T02:31:23.619Z,2.00
2022-11-18T02:33:57.383Z,1.88
2022-11-18T02:36:34.899Z,1.88
2022-11-18T02:39:11.422Z,1.85
2022-11-18T02:41:42.500Z,1.83
2022-11-18T02:44:19.085Z,1.70
2022-11-18T02:46:51.509Z,2.10
2022-11-18T02:49:27.344Z,2.35
2022-11-18T02:51:58.013Z,1.88
2022-11-18T02:54:27.824Z,1.75
2022-11-18T02:56:55.742Z,1.63
2022-11-18T02:59:24.677Z,2.03
2022-11-18T03:01:51.414Z,1.80
2022-11-18T03:04:19.181Z,1.90
2022-11-18T03:06:52.108Z,1.85
2022-11-18T03:09:36.888Z,1.75
2022-11-18T03:12:27.995Z,1.80
2022-11-18T03:15:19.040Z,1.80
2022-11-18T03:18:33.551Z,2.13
2022-11-18T03:21:05.851Z,1.92
2022-11-18T03:23:40.557Z,1.60
2022-11-18T03:26:18.837Z,1.88
2022-11-18T03:28:51.516Z,1.85
2022-11-18T03:31:37.830Z,1.60
2022-11-18T03:34:18.188Z,2.00
2022-11-18T03:36:53.789Z,2.20
2022-11-18T03:39:28.290Z,1.70
2022-11-18T03:42:05.437Z,1.70
2022-11-18T03:44:36.891Z,1.83
2022-11-18T03:47:14.732Z,2.10
2022-11-18T03:49:47.740Z,2.13
2022-11-18T03:52:20.096Z,2.60
2022-11-18T03:54:50.912Z,2.30
2022-11-18T03:57:24.728Z,1.75
2022-11-18T03:59:59.540Z,1.80
2022-11-18T04:02:30.748Z,2.10
2022-11-18T04:05:04.060Z,1.83
2022-11-18T04:07:55.936Z,1.80
2022-11-18T04:10:41.413Z,2.00
2022-11-18T04:13:25.020Z,1.95
2022-11-18T04:15:53.761Z,2.17
2022-11-18T04:18:20.776Z,1.80
2022-11-18T04:20:47.450Z,2.45
2022-11-18T04:23:14.189Z,2.10
2022-11-18T04:25:40.840Z,2.20
2022-11-18T04:28:07.521Z,2.30
2022-11-18T04:30:35.010Z,2.10
2022-11-18T04:33:05.123Z,1.77
2022-11-18T04:35:34.056Z,1.95
2022-11-18T04:38:00.705Z,2.10
2022-11-18T04:40:29.781Z,2.20
2022-11-18T04:42:58.712Z,1.90
2022-11-18T04:45:25.381Z,1.98
2022-11-18T04:47:52.044Z,1.92
2022-11-18T04:50:18.783Z,2.20
2022-11-18T04:52:45.462Z,2.33
2022-11-18T04:55:14.434Z,1.98
2022-11-18T04:57:41.104Z,1.90
2022-11-18T05:00:08.443Z,2.20
2022-11-18T05:02:37.674Z,1.80
2022-11-18T05:05:04.701Z,2.08
2022-11-18T05:07:31.408Z,2.10
2022-11-18T05:09:58.159Z,2.13
2022-11-18T05:12:46.667Z,2.75
2022-11-18T05:15:13.379Z,1.98
2022-11-18T05:17:40.069Z,2.30
2022-11-18T05:20:07.402Z,2.92
2022-11-18T05:22:36.238Z,2.17
2022-11-18T05:25:03.596Z,2.25
2022-11-18T05:27:30.395Z,2.83
2022-11-18T05:29:57.138Z,1.92
2022-11-18T05:32:23.844Z,2.50
2022-11-18T05:34:50.579Z,2.17
2022-11-18T05:37:17.499Z,2.10
2022-11-18T05:39:46.661Z,2.25
2022-11-18T05:42:31.761Z,1.85
2022-11-18T05:45:00.896Z,2.15
2022-11-18T05:47:27.678Z,2.00
2022-11-18T05:49:56.876Z,2.08
2022-11-18T05:52:25.772Z,2.13
2022-11-18T05:54:52.531Z,1.92
2022-11-18T05:57:21.689Z,2.03
2022-11-18T05:59:48.377Z,1.95
2022-11-18T06:02:19.937Z,2.78
2022-11-18T06:04:59.531Z,2.10
2022-11-18T06:07:38.409Z,1.85
2022-11-18T06:10:06.396Z,2.25
2022-11-18T06:12:38.820Z,1.80
2022-11-18T06:15:35.345Z,2.00
2022-11-18T06:18:14.177Z,2.33
2022-11-18T06:20:41.784Z,2.35
2022-11-18T06:23:09.003Z,2.42
2022-11-18T06:25:40.094Z,2.13
2022-11-18T06:28:09.064Z,2.38
2022-11-18T06:30:35.753Z,2.00
2022-11-18T06:33:04.664Z,2.50
2022-11-18T06:35:31.349Z,2.50
2022-11-18T06:37:58.017Z,2.60
2022-11-18T06:40:24.708Z,2.40
2022-11-18T06:43:09.901Z,3.08
2022-11-18T06:45:36.639Z,2.20
2022-11-18T06:48:04.224Z,2.58
2022-11-18T06:50:31.178Z,2.80
2022-11-18T06:53:00.325Z,2.40
2022-11-18T06:55:27.033Z,2.70
2022-11-18T06:57:56.664Z,2.65
2022-11-18T07:00:23.444Z,2.28
2022-11-18T07:02:50.130Z,2.65
2022-11-18T07:05:21.248Z,3.00
2022-11-18T07:07:48.005Z,2.40
2022-11-18T07:10:14.935Z,2.35
2022-11-18T07:12:41.656Z,3.33
2022-11-18T07:15:08.801Z,2.60
2022-11-18T07:17:37.710Z,2.88
2022-11-18T07:20:07.714Z,2.55
2022-11-18T07:25:01.177Z,2.75
2022-11-18T07:27:27.854Z,2.78
2022-11-18T07:29:54.505Z,2.58
2022-11-18T07:32:21.183Z,2.60
2022-11-18T07:34:50.048Z,3.33
2022-11-18T07:37:16.765Z,3.05
2022-11-18T07:39:43.450Z,2.85
2022-11-18T07:42:12.924Z,4.00
2022-11-18T07:44:39.597Z,3.10
2022-11-18T07:47:08.667Z,3.72
2022-11-18T07:49:35.325Z,3.10
2022-11-18T07:52:02.027Z,2.97
2022-11-18T07:54:28.758Z,2.75
2022-11-18T07:56:55.399Z,2.67
2022-11-18T07:59:22.106Z,3.10
2022-11-18T08:01:48.978Z,3.10
2022-11-18T08:04:16.590Z,2.63
2022-11-18T08:06:43.300Z,2.85
2022-11-18T08:09:10.120Z,3.22
2022-11-18T08:11:40.858Z,3.05
2022-11-18T08:14:07.633Z,2.95
2022-11-18T08:16:34.395Z,2.80
2022-11-18T08:19:03.591Z,3.10
2022-11-18T08:21:30.404Z,2.90
2022-11-18T08:23:58.537Z,2.85
2022-11-18T08:26:26.063Z,3.58
2022-11-18T08:28:54.444Z,3.15
2022-11-18T08:31:24.806Z,3.40
2022-11-18T08:34:05.288Z,3.67
2022-11-18T08:36:37.055Z,3.47
2022-11-18T08:39:06.857Z,3.65
2022-11-18T08:41:42.647Z,3.33
2022-11-18T08:44:13.525Z,3.38
2022-11-18T08:46:41.611Z,3.67
2022-11-18T08:49:10.747Z,3.40
2022-11-18T08:51:37.472Z,3.15
2022-11-18T08:54:04.405Z,3.92
2022-11-18T08:56:31.264Z,3.53
2022-11-18T08:59:00.145Z,3.53
2022-11-18T09:01:27.544Z,3.65
2022-11-18T09:03:57.742Z,3.60
2022-11-18T09:06:25.100Z,3.05
2022-11-18T09:08:52.348Z,3.42
2022-11-18T09:11:21.531Z,2.83
2022-11-18T09:14:25.844Z,3.75
2022-11-18T09:16:35.855Z,2.90
2022-11-18T09:19:18.477Z,2.63
2022-11-18T09:21:49.658Z,2.70
2022-11-18T09:24:17.119Z,2.90
2022-11-18T09:26:44.271Z,2.95
2022-11-18T09:29:13.825Z,2.70
2022-11-18T09:31:40.508Z,3.17
2022-11-18T09:34:10.455Z,2.85
2022-11-18T09:36:37.560Z,3.22
2022-11-18T09:39:07.017Z,2.80
2022-11-18T09:41:50.650Z,3.30
2022-11-18T09:44:20.228Z,3.00
2022-11-18T09:47:15.826Z,2.60
2022-11-18T09:49:44.665Z,3.08
2022-11-18T09:52:18.869Z,2.92
2022-11-18T09:54:46.101Z,2.60
2022-11-18T09:57:19.130Z,2.90
2022-11-18T09:59:46.169Z,2.33
2022-11-18T10:02:34.710Z,2.40
2022-11-18T10:05:18.530Z,1.90
2022-11-18T10:08:05.107Z,2.00
2022-11-18T10:10:43.912Z,1.73
2022-11-18T10:13:22.561Z,2.53
2022-11-18T10:16:46.340Z,2.40
2022-11-18T10:19:25.876Z,2.50
2022-11-18T10:22:00.540Z,2.75
2022-11-18T10:24:35.921Z,2.45
2022-11-18T10:27:11.294Z,2.20
2022-11-18T10:29:38.070Z,2.00
2022-11-18T10:32:13.430Z,2.40
2022-11-18T10:34:53.259Z,2.35
2022-11-18T10:40:27.140Z,2.20
2022-11-18T10:42:54.088Z,2.47
2022-11-18T10:45:23.499Z,2.58
2022-11-18T10:48:02.086Z,1.98
2022-11-18T10:50:30.886Z,1.70
2022-11-18T10:52:57.628Z,2.40
2022-11-18T10:55:26.336Z,1.90
2022-11-18T10:58:00.049Z,1.80
2022-11-18T11:00:38.845Z,1.90
2022-11-18T11:03:33.908Z,1.73
2022-11-18T11:06:27.632Z,1.88
2022-11-18T11:08:56.155Z,2.20
2022-11-18T11:11:43.567Z,2.40
2022-11-18T11:14:13.309Z,1.90
2022-11-18T11:17:04.986Z,2.60
2022-11-18T11:19:41.986Z,1.90
2022-11-18T11:22:14.541Z,1.40
2022-11-18T11:24:41.496Z,1.42
2022-11-18T11:30:24.253Z,1.15
2022-11-18T11:33:10.059Z,1.40
2022-11-18T11:36:01.027Z,1.30
2022-11-18T11:38:49.585Z,1.33
2022-11-18T11:41:48.686Z,1.05
2022-11-18T11:44:50.476Z,1.17
2022-11-18T11:47:47.746Z,1.50
2022-11-18T11:50:24.496Z,0.90
2022-11-18T11:53:20.620Z,1.08
2022-11-18T11:56:07.740Z,1.27
2022-11-18T11:58:40.586Z,1.50
2022-11-18T12:01:40.947Z,0.88
2022-11-18T12:04:38.562Z,1.58
2022-11-18T12:07:12.640Z,1.52
2022-11-18T12:09:48.213Z,1.83
2022-11-18T12:12:38.320Z,1.15
2022-11-18T12:15:16.199Z,1.00
2022-11-18T12:18:12.021Z,1.73
2022-11-18T12:20:45.000Z,1.10
2022-11-18T12:23:23.956Z,0.90
2022-11-18T12:25:55.388Z,0.87
2022-11-18T12:28:37.694Z,0.95
2022-11-18T12:31:21.995Z,1.30
2022-11-18T12:34:18.611Z,1.30
2022-11-18T12:36:45.586Z,1.13
2022-11-18T12:39:30.148Z,1.33
2022-11-18T12:42:20.176Z,1.42
2022-11-18T12:44:54.808Z,1.08
2022-11-18T12:47:42.676Z,1.80
2022-11-18T12:50:10.856Z,1.50
2022-11-18T12:52:37.467Z,1.20
2022-11-18T12:55:20.422Z,1.30
2022-11-18T12:57:49.353Z,1.10
2022-11-18T13:00:29.635Z,1.70
2022-11-18T13:02:59.006Z,1.40
2022-11-18T13:05:34.499Z,1.20
2022-11-18T13:08:15.762Z,1.25
2022-11-18T13:11:18.134Z,1.40
2022-11-18T13:13:46.036Z,1.70
2022-11-18T13:16:55.222Z,1.50
2022-11-18T13:19:27.387Z,1.25
2022-11-18T13:22:17.434Z,1.17
2022-11-18T13:24:52.221Z,1.20
2022-11-18T13:27:33.128Z,1.10
2022-11-18T13:30:13.861Z,1.60
2022-11-18T13:32:46.137Z,1.67
2022-11-18T13:35:27.174Z,1.60
2022-11-18T13:38:01.984Z,1.13
2022-11-18T13:40:31.223Z,1.17
2022-11-18T13:42:57.938Z,1.15
2022-11-18T13:45:28.217Z,1.40
2022-11-18T13:48:09.335Z,1.98
2022-11-18T13:50:51.105Z,1.45
2022-11-18T13:53:31.836Z,1.75
2022-11-18T13:56:02.895Z,1.48
2022-11-18T13:58:49.632Z,1.65
2022-11-18T14:01:25.219Z,1.80
2022-11-18T14:04:02.190Z,1.42
2022-11-18T14:06:33.416Z,1.27
2022-11-18T14:09:07.941Z,1.20
2022-11-18T14:11:37.651Z,1.38
2022-11-18T14:14:04.880Z,1.65
2022-11-18T14:16:39.896Z,1.30
2022-11-18T14:19:07.036Z,1.42
2022-11-18T14:21:36.304Z,1.35
2022-11-18T14:24:03.797Z,1.17
2022-11-18T14:26:36.675Z,1.55
2022-11-18T14:29:20.710Z,0.85
2022-11-18T14:32:15.354Z,1.00
2022-11-18T14:34:42.200Z,1.27
2022-11-18T14:37:15.268Z,1.60
2022-11-18T14:39:56.149Z,0.98
2022-11-18T14:42:23.687Z,1.50
2022-11-18T14:44:51.073Z,1.25
2022-11-18T14:47:23.468Z,1.10
2022-11-18T14:49:50.148Z,0.77
2022-11-18T14:52:16.942Z,1.05
2022-11-18T14:54:45.779Z,1.17
2022-11-18T14:57:16.136Z,0.70
2022-11-18T14:59:47.481Z,1.15
2022-11-18T15:02:18.039Z,0.88
2022-11-18T15:04:45.085Z,1.00
2022-11-18T15:07:21.813Z,1.55
2022-11-18T15:09:52.502Z,1.13
2022-11-18T15:12:21.481Z,1.25
2022-11-18T15:14:50.619Z,0.97
2022-11-18T15:17:24.915Z,1.35
2022-11-18T15:19:51.595Z,1.13
2022-11-18T15:22:20.729Z,1.05
2022-11-18T15:24:47.415Z,0.95
2022-11-18T15:27:14.047Z,1.58
2022-11-18T15:29:42.961Z,1.40
2022-11-18T15:32:12.132Z,0.90
2022-11-18T15:34:38.819Z,1.52
2022-11-18T15:37:05.506Z,1.73
2022-11-18T15:39:32.183Z,1.50
2022-11-18T15:41:58.985Z,1.30
2022-11-18T15:44:25.810Z,1.10
2022-11-18T15:46:52.538Z,1.40
2022-11-18T15:49:19.336Z,1.05
2022-11-18T15:51:46.023Z,1.55
2022-11-18T15:54:13.325Z,1.27
2022-11-18T15:56:41.509Z,0.95
2022-11-18T15:59:13.255Z,1.40
2022-11-18T16:01:42.306Z,1.30
2022-11-18T16:04:11.168Z,1.05
2022-11-18T16:06:38.165Z,1.10
2022-11-18T16:09:06.210Z,1.35
2022-11-18T16:11:51.990Z,1.40
2022-11-18T16:14:20.465Z,1.00
2022-11-18T16:16:49.111Z,1.38
2022-11-18T16:19:18.383Z,1.15
2022-11-18T16:21:48.050Z,1.20
2022-11-18T16:24:18.500Z,1.17
2022-11-18T16:26:46.089Z,1.17
2022-11-18T16:29:15.712Z,1.38
2022-11-18T16:31:43.788Z,1.55
2022-11-18T16:34:19.908Z,1.75
2022-11-18T16:36:49.117Z,1.85
2022-11-18T16:39:18.120Z,4.00
2022-11-18T16:41:46.156Z,3.10
2022-11-18T16:44:15.870Z,3.28
2022-11-18T16:46:49.440Z,3.00
2022-11-18T16:49:18.371Z,2.97
2022-11-18T16:51:47.381Z,3.47
2022-11-18T16:54:26.036Z,3.70
2022-11-18T16:56:54.609Z,3.50
2022-11-18T16:59:29.581Z,3.28
2022-11-18T17:01:58.357Z,3.20
2022-11-18T17:04:27.225Z,2.88
2022-11-18T17:06:54.170Z,3.10
2022-11-18T17:09:22.942Z,2.60
2022-11-18T17:11:53.608Z,2.70
2022-11-18T17:14:21.933Z,2.45
2022-11-18T17:16:52.356Z,2.33
2022-11-18T17:19:21.560Z,2.70
2022-11-18T17:21:49.046Z,2.40
2022-11-18T17:24:21.438Z,2.17
2022-11-18T17:26:49.324Z,2.47
2022-11-18T17:29:16.827Z,1.95
2022-11-18T17:31:44.316Z,2.20
2022-11-18T17:34:14.775Z,2.35
2022-11-18T17:36:42.401Z,2.20
2022-11-18T17:39:13.215Z,2.53
2022-11-18T17:41:58.859Z,3.78
2022-11-18T17:44:27.018Z,3.40
2022-11-18T17:46:53.876Z,2.75
2022-11-18T17:49:23.432Z,3.10
2022-11-18T17:51:51.396Z,2.60
2022-11-18T17:54:19.327Z,2.60
2022-11-18T17:56:47.191Z,2.10
2022-11-18T17:59:15.752Z,2.25
2022-11-18T18:01:42.717Z,2.13
2022-11-18T18:04:09.559Z,2.00
2022-11-18T18:06:36.357Z,2.05
2022-11-18T18:09:03.563Z,1.70
2022-11-18T18:11:30.293Z,1.88
2022-11-18T18:14:12.434Z,1.80
2022-11-18T18:16:47.821Z,2.17
2022-11-18T18:19:20.470Z,1.55
2022-11-18T18:21:47.727Z,1.95
2022-11-18T18:24:17.269Z,2.33
2022-11-18T18:29:11.955Z,2.10
2022-11-18T18:31:38.642Z,2.03
2022-11-18T18:34:05.895Z,2.45
2022-11-18T18:36:35.158Z,2.65
2022-11-18T18:39:04.718Z,2.38
2022-11-18T18:41:33.907Z,2.45
2022-11-18T18:44:03.157Z,2.28
2022-11-18T18:46:31.862Z,2.20
2022-11-18T18:49:13.410Z,2.03
2022-11-18T18:51:42.132Z,1.90
2022-11-18T18:54:14.155Z,2.75
2022-11-18T18:56:40.947Z,2.33
2022-11-18T18:59:08.673Z,2.40
2022-11-18T19:01:35.834Z,2.30
2022-11-18T19:04:07.791Z,2.15
2022-11-18T19:09:27.443Z,2.10
2022-11-18T19:12:15.640Z,1.90
2022-11-18T19:14:44.977Z,1.77
2022-11-18T19:17:14.451Z,1.67
2022-11-18T19:20:00.839Z,1.70
2022-11-18T19:22:32.862Z,1.77
2022-11-18T19:25:00.874Z,1.50
2022-11-18T19:27:28.450Z,2.08
2022-11-18T19:29:55.207Z,1.60
2022-11-18T19:32:22.781Z,1.58
2022-11-18T19:34:49.498Z,1.88
2022-11-18T19:37:16.191Z,1.48
2022-11-18T19:39:42.859Z,1.67
2022-11-18T19:42:10.892Z,1.88
2022-11-18T19:44:38.583Z,2.03
2022-11-18T19:47:10.225Z,1.80
2022-11-18T19:49:36.920Z,1.85
2022-11-18T19:52:06.182Z,2.20
2022-11-18T19:54:33.264Z,1.95
2022-11-18T19:57:00.992Z,2.17
2022-11-18T19:59:30.118Z,2.20
2022-11-18T20:01:56.863Z,2.23
2022-11-18T20:04:25.866Z,2.60
2022-11-18T20:06:55.006Z,2.47
2022-11-18T20:09:21.932Z,2.80
2022-11-18T20:11:48.974Z,2.60
2022-11-18T20:14:15.729Z,3.10
2022-11-18T20:16:44.622Z,2.90
2022-11-18T20:19:13.757Z,3.22
2022-11-18T20:21:43.282Z,2.83
2022-11-18T20:24:15.715Z,2.78
2022-11-18T20:26:42.999Z,2.70
2022-11-18T20:29:09.922Z,2.75
2022-11-18T20:31:37.234Z,2.63
2022-11-18T20:34:06.406Z,2.70
2022-11-18T20:36:35.843Z,3.42
2022-11-18T20:39:08.177Z,3.25
2022-11-18T20:41:36.384Z,3.05
2022-11-18T20:44:03.814Z,3.13
2022-11-18T20:46:30.595Z,3.20
2022-11-18T20:48:59.449Z,3.53
2022-11-18T20:51:28.440Z,3.33
2022-11-18T20:53:57.555Z,3.10
2022-11-18T20:56:26.330Z,3.27
2022-11-18T20:58:53.512Z,3.10
2022-11-18T21:01:24.158Z,3.20
2022-11-18T21:04:01.741Z,3.20
2022-11-18T21:06:32.195Z,2.75
2022-11-18T21:09:06.218Z,3.10
2022-11-18T21:11:38.614Z,2.90
2022-11-18T21:14:24.501Z,3.67
2022-11-18T21:17:00.588Z,2.92
2022-11-18T21:19:28.411Z,3.17
2022-11-18T21:21:58.393Z,3.30
2022-11-18T21:26:56.708Z,3.42
2022-11-18T21:29:25.738Z,3.38
2022-11-18T21:31:52.751Z,3.43
2022-11-18T21:34:20.321Z,3.40
2022-11-18T21:36:53.224Z,3.60
2022-11-18T21:39:24.334Z,3.47
2022-11-18T21:41:56.624Z,3.33
2022-11-18T21:44:24.741Z,3.20
2022-11-18T21:46:51.865Z,3.45
2022-11-18T21:49:19.160Z,3.70
2022-11-18T21:51:48.768Z,3.47
2022-11-18T21:54:18.285Z,3.65
2022-11-18T21:56:45.372Z,3.55
2022-11-18T21:59:12.090Z,3.40
2022-11-18T22:01:38.848Z,3.20
2022-11-18T22:04:07.822Z,3.45
2022-11-18T22:06:35.160Z,3.20
2022-11-18T22:09:03.964Z,3.00
2022-11-18T22:11:30.816Z,3.05
2022-11-18T22:13:59.724Z,3.40
2022-11-18T22:16:27.276Z,3.15
2022-11-18T22:19:01.480Z,3.28
2022-11-18T22:21:30.711Z,3.55
2022-11-18T22:24:00.754Z,4.03
2022-11-18T22:26:28.119Z,3.00
2022-11-18T22:28:56.860Z,2.92
2022-11-18T22:31:25.197Z,3.30
2022-11-18T22:33:52.616Z,2.63
2022-11-18T22:36:24.550Z,3.28
2022-11-18T22:38:52.757Z,3.25
2022-11-18T22:41:43.717Z,2.63
2022-11-18T22:44:12.037Z,3.20
2022-11-18T22:46:42.557Z,3.35
2022-11-18T22:49:12.866Z,3.10
2022-11-18T22:51:40.046Z,2.78
2022-11-18T22:54:37.290Z,3.00
2022-11-18T22:56:54.954Z,3.25
2022-11-18T22:59:22.097Z,2.90
2022-11-18T23:01:51.524Z,2.78
2022-11-18T23:04:20.995Z,2.70
2022-11-18T23:06:51.349Z,2.72
2022-11-18T23:09:18.234Z,2.60
2022-11-18T23:12:03.886Z,2.85
2022-11-18T23:14:31.392Z,2.70
2022-11-18T23:16:58.184Z,2.90
2022-11-18T23:19:24.951Z,2.80
2022-11-18T23:21:51.636Z,3.05
2022-11-18T23:24:21.846Z,3.20
2022-11-18T23:26:48.765Z,2.72
2022-11-18T23:29:16.595Z,3.75
2022-11-18T23:31:44.700Z,2.50
2022-11-18T23:34:13.298Z,2.92
2022-11-18T23:36:42.543Z,3.22
2022-11-18T23:39:11.677Z,3.05
2022-11-18T23:41:38.811Z,3.10
2022-11-18T23:44:05.940Z,2.97
2022-11-18T23:46:35.334Z,3.03
2022-11-18T23:49:02.002Z,3.17
2022-11-18T23:51:28.854Z,3.00
2022-11-18T23:53:56.946Z,2.80
2022-11-18T23:56:25.903Z,2.92
2022-11-18T23:58:54.611Z,3.00
